SBOSBO TER / LPLA
Speedbird OnlineSpeedbird Online TER / LPLA

Lajes Airport
06:54 20°C

Location Lajes (Terceira Island), Portugal
Latitude: 38.761799
Longitude: -27.090799
Web Airport Website | Wikipedia
Altitude 55 Meter / 180 Feet
Distance 2,540 KM / 1,578 Miles
from London.
Time Zone UTC 0 hours (Atlantic/Azores)
Codes IATA: TER
ICAO: LPLA
Currency £1 equals EUR 1.15
Runways
RunwayLength (m)Surface
153313Asphalt
333313Asphalt
Radio
TypeDescriptionFrequency
APPAPP135
ATISATIS120.3
GCCDGND121.9
MISCAMC COMD POST130.65
PMSVPMSV METRO28.442
PTDPTD30.877
TWRTWR122.1
Live ATC
METAR LPLA 060600Z /////KT 8000 -RA FEW009 BKN015 BKN030 20/20 Q1027
TAF TAF LPLA 060506Z 0606/0706 08012KT 9999 FEW007 BKN022 TEMPO 0606/0612 4000 RADZ BR BKN007 BKN018 BECMG 0608/0610 18010KT BECMG 0612/0615 FEW015 SCT030
Weather As Of 06 Oct 2022 06:54
Description Light rain
Wind 20 km/h from South-East (118°)
Cloud Cover 75%
Precipitation Rain: none, Snow: none
Sunrise 07:48
Sunset 19:24
Rotations During the last 90 days there were
8 flights from LHR
8 flights to LHR


© 2017-2022 Speedbird Online